createdAt,value
2019-03-17T00:00:41.210Z,97424.63
2019-03-17T00:05:46.217Z,97428.77
2019-03-17T00:10:52.616Z,97423.04
2019-03-17T00:15:57.774Z,97430.05
2019-03-17T00:21:02.640Z,97420.94
2019-03-17T00:26:07.378Z,97422.63
2019-03-17T00:31:23.243Z,97430.77
2019-03-17T00:36:18.407Z,97424.98
2019-03-17T00:41:23.153Z,97420.78
2019-03-17T00:46:27.890Z,97418.79
2019-03-17T00:51:33.554Z,97415.75
2019-03-17T00:56:38.195Z,97416.47
2019-03-17T01:01:42.946Z,97414.09
2019-03-17T01:06:47.683Z,97421.47
2019-03-17T01:11:53.547Z,97411.45
2019-03-17T01:16:59.340Z,97391.46
2019-03-17T01:22:04.064Z,97403.64
2019-03-17T01:27:08.801Z,97398.88
2019-03-17T01:32:13.546Z,97394.67
2019-03-17T01:37:18.392Z,97403.88
2019-03-17T01:42:24.260Z,97402.35
2019-03-17T01:47:29.008Z,97409.88
2019-03-17T01:52:33.750Z,97421.73
2019-03-17T01:57:38.488Z,97429.06
2019-03-17T02:02:43.232Z,97437.48
2019-03-17T02:07:47.975Z,97443.28
2019-03-17T02:12:52.720Z,97453.08
2019-03-17T02:17:57.457Z,97450.36
2019-03-17T02:23:02.202Z,97462.37
2019-03-17T02:28:06.835Z,97466.07
2019-03-17T02:33:11.524Z,97469.55
2019-03-17T02:38:16.184Z,97476.38
2019-03-17T02:43:21.081Z,97478.58
2019-03-17T02:48:25.651Z,97485.60
2019-03-17T02:53:30.354Z,97488.77
2019-03-17T02:58:34.987Z,97482.03
2019-03-17T03:03:39.634Z,97482.14
2019-03-17T03:08:44.277Z,97483.97
2019-03-17T03:13:48.926Z,97474.80
2019-03-17T03:18:53.657Z,97475.84
2019-03-17T03:23:58.403Z,97476.67
2019-03-17T03:29:03.035Z,97479.08
2019-03-17T03:34:07.684Z,97483.24
2019-03-17T03:39:12.456Z,97467.77
2019-03-17T03:44:17.065Z,97472.47
2019-03-17T03:49:21.715Z,97472.08
2019-03-17T03:54:26.449Z,97474.07
2019-03-17T03:59:31.195Z,97474.81
2019-03-17T04:04:35.827Z,97494.95
2019-03-17T04:09:42.232Z,97504.29
2019-03-17T04:14:46.858Z,97520.41
2019-03-17T04:19:51.603Z,97524.23
2019-03-17T04:24:56.238Z,97544.25
2019-03-17T04:30:00.906Z,97550.19
2019-03-17T04:35:07.053Z,97555.66
2019-03-17T04:40:11.805Z,97561.80
2019-03-17T04:45:16.757Z,97570.09
2019-03-17T04:50:21.386Z,97568.13
2019-03-17T04:55:26.129Z,97566.11
2019-03-17T05:00:32.639Z,97571.19
2019-03-17T05:05:37.455Z,97566.91
2019-03-17T05:10:42.201Z,97564.25
2019-03-17T05:15:47.149Z,97559.28
2019-03-17T05:20:52.319Z,97559.56
2019-03-17T05:25:57.557Z,97559.14
2019-03-17T05:31:02.400Z,97553.98
2019-03-17T05:36:07.247Z,97566.23
2019-03-17T05:41:11.896Z,97559.72
2019-03-17T05:46:16.638Z,97555.20
2019-03-17T05:51:21.264Z,97558.34
2019-03-17T05:56:26.116Z,97561.80
2019-03-17T06:01:30.758Z,97581.53
2019-03-17T06:06:35.503Z,97584.25
2019-03-17T06:11:40.345Z,97578.52
2019-03-17T06:16:46.215Z,97580.44
2019-03-17T06:21:52.713Z,97585.70
2019-03-17T06:26:57.540Z,97576.30
2019-03-17T06:32:02.287Z,97576.52
2019-03-17T06:37:07.139Z,97560.75
2019-03-17T06:42:11.895Z,97563.39
2019-03-17T06:47:16.940Z,97560.10
2019-03-17T06:52:23.969Z,97563.75
2019-03-17T06:57:28.769Z,97559.46
2019-03-17T07:02:33.510Z,97555.95
2019-03-17T07:07:43.816Z,97553.48
2019-03-17T07:12:44.857Z,97557.92
2019-03-17T07:17:51.732Z,97551.56
2019-03-17T07:22:57.311Z,97552.00
2019-03-17T07:28:03.248Z,97556.83
2019-03-17T07:33:08.324Z,97557.17
2019-03-17T07:38:14.349Z,97555.53
2019-03-17T07:43:20.209Z,97553.15
2019-03-17T07:48:26.661Z,97556.38
2019-03-17T07:53:33.878Z,97550.02
2019-03-17T07:58:38.860Z,97554.08
2019-03-17T08:03:43.591Z,97545.27
2019-03-17T08:08:56.898Z,97543.48
2019-03-17T08:14:06.231Z,97549.89
2019-03-17T08:19:11.090Z,97542.02
2019-03-17T08:24:16.439Z,97526.23
2019-03-17T08:29:21.184Z,97527.69
2019-03-17T08:34:28.545Z,97521.48
2019-03-17T08:39:35.425Z,97512.82
2019-03-17T08:44:41.457Z,97512.72
2019-03-17T08:49:46.304Z,97502.88
2019-03-17T08:54:51.386Z,97500.58
2019-03-17T08:59:56.402Z,97493.71
2019-03-17T09:05:01.678Z,97490.73
2019-03-17T09:10:14.658Z,97488.66
2019-03-17T09:15:21.525Z,97481.77
2019-03-17T09:20:26.444Z,97478.76
2019-03-17T09:25:32.990Z,97478.67
2019-03-17T09:30:38.002Z,97477.50
2019-03-17T09:35:42.633Z,97473.95
2019-03-17T09:45:58.310Z,97454.61
2019-03-17T09:51:03.340Z,97448.64
2019-03-17T09:56:08.451Z,97448.86
2019-03-17T10:01:13.194Z,97444.12
2019-03-17T10:06:19.120Z,97435.92
2019-03-17T10:11:24.357Z,97433.34
2019-03-17T10:16:30.701Z,97437.38
2019-03-17T10:21:35.646Z,97430.50
2019-03-17T10:26:40.437Z,97416.38
2019-03-17T10:31:46.154Z,97412.33
2019-03-17T10:36:53.186Z,97403.53
2019-03-17T10:41:58.850Z,97396.89
2019-03-17T10:47:03.984Z,97390.58
2019-03-17T10:52:09.236Z,97389.00
2019-03-17T10:57:14.083Z,97379.39
2019-03-17T11:02:18.840Z,97368.58
2019-03-17T11:07:23.576Z,97362.73
2019-03-17T11:12:28.524Z,97349.78
2019-03-17T11:17:33.579Z,97343.64
2019-03-17T11:22:43.774Z,97335.48
2019-03-17T11:27:56.094Z,97328.17
2019-03-17T11:33:07.624Z,97318.23
2019-03-17T11:38:24.837Z,97301.00
2019-03-17T11:43:31.907Z,97298.77
2019-03-17T11:48:36.748Z,97300.69
2019-03-17T11:53:42.042Z,97294.87
2019-03-17T11:58:46.748Z,97291.00
2019-03-17T12:03:51.697Z,97287.88
2019-03-17T12:08:56.444Z,97292.08
2019-03-17T12:14:01.194Z,97282.34
2019-03-17T12:19:07.567Z,97270.29
2019-03-17T12:24:12.355Z,97262.19
2019-03-17T12:29:17.468Z,97258.38
2019-03-17T12:34:28.062Z,97251.20
2019-03-17T12:39:28.800Z,97246.56
2019-03-17T12:44:33.746Z,97240.98
2019-03-17T12:49:40.481Z,97239.88
2019-03-17T12:54:45.185Z,97231.25
2019-03-17T12:59:49.931Z,97220.12
2019-03-17T13:04:54.658Z,97223.14
2019-03-17T13:09:59.417Z,97209.33
2019-03-17T13:15:06.439Z,97210.48
2019-03-17T13:20:16.374Z,97215.26
2019-03-17T13:25:21.125Z,97213.61
2019-03-17T13:30:25.875Z,97212.13
2019-03-17T13:35:30.609Z,97205.28
2019-03-17T13:40:36.611Z,97198.02
2019-03-17T13:45:41.436Z,97204.97
2019-03-17T13:50:47.061Z,97191.55
2019-03-17T13:55:51.940Z,97190.89
2019-03-17T14:00:57.708Z,97193.47
2019-03-17T14:06:03.262Z,97182.74
2019-03-17T14:11:09.251Z,97182.39
2019-03-17T14:16:15.829Z,97174.55
2019-03-17T14:21:24.419Z,97170.47
2019-03-17T14:26:28.465Z,97172.43
2019-03-17T14:31:33.244Z,97171.17
2019-03-17T14:36:38.087Z,97170.08
2019-03-17T14:41:44.044Z,97170.25
2019-03-17T14:46:50.694Z,97176.01
2019-03-17T14:51:56.673Z,97170.45
2019-03-17T14:57:01.344Z,97170.11
2019-03-17T15:02:06.212Z,97167.15
2019-03-17T15:07:10.900Z,97163.95
2019-03-17T15:12:15.603Z,97158.34
2019-03-17T15:17:20.547Z,97154.23
2019-03-17T15:22:25.375Z,97151.86
2019-03-17T15:27:30.240Z,97149.47
2019-03-17T15:32:35.086Z,97147.03
2019-03-17T15:37:40.031Z,97148.72
2019-03-17T15:42:44.780Z,97150.80
2019-03-17T15:47:50.131Z,97148.59
2019-03-17T15:52:56.823Z,97148.69
2019-03-17T15:58:01.429Z,97148.24
2019-03-17T16:03:06.272Z,97151.86
2019-03-17T16:08:11.360Z,97153.29
2019-03-17T16:13:16.001Z,97148.17
2019-03-17T16:18:20.757Z,97168.73
2019-03-17T16:23:25.374Z,97156.03
2019-03-17T16:28:30.035Z,97156.61
2019-03-17T16:33:35.626Z,97158.41
2019-03-17T16:38:40.352Z,97165.77
2019-03-17T16:43:47.777Z,97160.53
2019-03-17T16:48:56.205Z,97158.95
2019-03-17T16:54:05.105Z,97155.71
2019-03-17T16:59:14.138Z,97149.27
2019-03-17T17:04:22.977Z,97149.16
2019-03-17T17:09:28.510Z,97147.45
2019-03-17T17:14:36.576Z,97152.45
2019-03-17T17:19:45.347Z,97150.55
2019-03-17T17:24:53.723Z,97160.07
2019-03-17T17:30:02.114Z,97163.70
2019-03-17T17:35:11.069Z,97182.30
2019-03-17T17:40:23.665Z,97189.83
2019-03-17T17:45:32.877Z,97180.55
2019-03-17T17:50:42.227Z,97189.16
2019-03-17T17:55:50.231Z,97193.49
2019-03-17T18:01:00.732Z,97196.58
2019-03-17T18:06:10.320Z,97206.59
2019-03-17T18:11:16.709Z,97210.52
2019-03-17T18:16:25.849Z,97207.95
2019-03-17T18:21:35.321Z,97213.44
2019-03-17T18:26:40.957Z,97209.69
2019-03-17T18:31:45.799Z,97207.17
2019-03-17T18:36:50.654Z,97210.11
2019-03-17T18:41:55.394Z,97211.93
2019-03-17T18:47:01.243Z,97208.20
2019-03-17T18:52:10.120Z,97195.51
2019-03-17T18:57:20.712Z,97200.65
2019-03-17T19:02:26.757Z,97195.61
2019-03-17T19:07:31.612Z,97201.14
2019-03-17T19:12:44.936Z,97196.64
2019-03-17T19:17:42.734Z,97203.00
2019-03-17T19:22:49.013Z,97197.33
2019-03-17T19:27:53.756Z,97198.20
2019-03-17T19:32:58.498Z,97193.78
2019-03-17T19:38:03.135Z,97196.73
2019-03-17T19:43:08.185Z,97193.11
2019-03-17T19:48:13.046Z,97193.45
2019-03-17T19:53:18.112Z,97200.60
2019-03-17T19:58:23.033Z,97205.20
2019-03-17T20:03:28.488Z,97211.63
2019-03-17T20:08:34.408Z,97217.60
2019-03-17T20:13:39.740Z,97215.08
2019-03-17T20:18:45.098Z,97220.63
2019-03-17T20:23:50.600Z,97223.97
2019-03-17T20:28:56.233Z,97216.58
2019-03-17T20:34:02.175Z,97216.56
2019-03-17T20:39:09.738Z,97209.77
2019-03-17T20:44:14.535Z,97208.45
2019-03-17T20:49:19.267Z,97208.12
2019-03-17T20:54:23.910Z,97207.73
2019-03-17T20:59:28.751Z,97197.79
2019-03-17T21:04:33.317Z,97199.15
2019-03-17T21:09:38.037Z,97198.55
2019-03-17T21:14:42.779Z,97190.14
2019-03-17T21:19:47.625Z,97196.30
2019-03-17T21:24:52.369Z,97193.54
2019-03-17T21:29:57.108Z,97186.05
2019-03-17T21:35:01.855Z,97189.30
2019-03-17T21:40:09.428Z,97186.88
2019-03-17T21:45:14.397Z,97186.84
2019-03-17T21:50:20.998Z,97192.66
2019-03-17T21:55:25.945Z,97196.27
2019-03-17T22:00:30.690Z,97190.41
2019-03-17T22:05:35.431Z,97190.78
2019-03-17T22:10:40.271Z,97194.73
2019-03-17T22:15:45.230Z,97199.03
2019-03-17T22:20:49.968Z,97186.16
2019-03-17T22:25:54.811Z,97187.67
2019-03-17T22:30:59.561Z,97199.80
2019-03-17T22:36:04.307Z,97188.65
2019-03-17T22:41:09.050Z,97191.38
2019-03-17T22:46:13.786Z,97179.66
2019-03-17T22:51:18.746Z,97187.91
2019-03-17T22:56:23.683Z,97177.68
2019-03-17T23:01:28.530Z,97189.59
2019-03-17T23:06:33.188Z,97191.05
2019-03-17T23:11:37.811Z,97201.59
2019-03-17T23:16:42.407Z,97207.09
2019-03-17T23:21:47.835Z,97222.46
2019-03-17T23:26:52.758Z,97210.02
2019-03-17T23:31:57.599Z,97211.53
2019-03-17T23:37:02.343Z,97215.45
2019-03-17T23:42:06.988Z,97204.28
2019-03-17T23:47:11.630Z,97205.41
2019-03-17T23:52:16.280Z,97192.74
2019-03-17T23:57:21.113Z,97192.72
